sensor_id;sensor_type;location;lat;lon;timestamp;P1;durP1;ratioP1;P2;durP2;ratioP2
31686;SDS011;18285;51.330;4.946;2023-12-20T00:05:28;4.82;;;2.25;;
31686;SDS011;18285;51.330;4.946;2023-12-20T00:53:50;3.73;;;1.40;;
31686;SDS011;18285;51.330;4.946;2023-12-20T01:18:04;4.15;;;1.60;;
31686;SDS011;18285;51.330;4.946;2023-12-20T01:42:15;2.95;;;1.38;;
31686;SDS011;18285;51.330;4.946;2023-12-20T02:30:39;3.38;;;1.42;;
31686;SDS011;18285;51.330;4.946;2023-12-20T03:19:00;2.67;;;1.15;;
31686;SDS011;18285;51.330;4.946;2023-12-20T03:43:11;3.22;;;1.38;;
31686;SDS011;18285;51.330;4.946;2023-12-20T04:07:22;3.13;;;1.23;;
31686;SDS011;18285;51.330;4.946;2023-12-20T04:31:32;2.70;;;1.10;;
31686;SDS011;18285;51.330;4.946;2023-12-20T04:55:43;3.75;;;1.27;;
31686;SDS011;18285;51.330;4.946;2023-12-20T05:19:54;3.47;;;1.47;;
31686;SDS011;18285;51.330;4.946;2023-12-20T05:44:05;4.13;;;1.70;;
31686;SDS011;18285;51.330;4.946;2023-12-20T06:08:15;6.77;;;1.70;;
31686;SDS011;18285;51.330;4.946;2023-12-20T06:32:26;4.83;;;1.67;;
31686;SDS011;18285;51.330;4.946;2023-12-20T06:56:38;8.60;;;2.95;;
31686;SDS011;18285;51.330;4.946;2023-12-20T07:20:49;8.57;;;3.03;;
31686;SDS011;18285;51.330;4.946;2023-12-20T07:45:00;9.83;;;2.70;;
31686;SDS011;18285;51.330;4.946;2023-12-20T08:09:11;5.37;;;2.30;;
31686;SDS011;18285;51.330;4.946;2023-12-20T08:33:21;4.83;;;2.23;;
31686;SDS011;18285;51.330;4.946;2023-12-20T08:57:32;6.93;;;2.17;;
31686;SDS011;18285;51.330;4.946;2023-12-20T09:21:43;5.30;;;2.00;;
31686;SDS011;18285;51.330;4.946;2023-12-20T09:45:54;6.90;;;2.37;;
31686;SDS011;18285;51.330;4.946;2023-12-20T10:10:13;2.92;;;1.63;;
31686;SDS011;18285;51.330;4.946;2023-12-20T10:34:24;9.15;;;2.15;;
31686;SDS011;18285;51.330;4.946;2023-12-20T10:58:34;5.80;;;2.30;;
31686;SDS011;18285;51.330;4.946;2023-12-20T11:22:54;10.60;;;3.15;;
31686;SDS011;18285;51.330;4.946;2023-12-20T11:47:05;8.35;;;2.83;;
31686;SDS011;18285;51.330;4.946;2023-12-20T12:11:16;7.03;;;2.47;;
31686;SDS011;18285;51.330;4.946;2023-12-20T12:35:27;8.68;;;2.35;;
31686;SDS011;18285;51.330;4.946;2023-12-20T12:59:38;10.07;;;2.78;;
31686;SDS011;18285;51.330;4.946;2023-12-20T13:23:49;7.57;;;3.00;;
31686;SDS011;18285;51.330;4.946;2023-12-20T13:47:59;10.40;;;2.63;;
31686;SDS011;18285;51.330;4.946;2023-12-20T14:12:11;5.85;;;2.35;;
31686;SDS011;18285;51.330;4.946;2023-12-20T14:36:22;8.38;;;2.15;;
31686;SDS011;18285;51.330;4.946;2023-12-20T15:00:33;6.63;;;2.42;;
31686;SDS011;18285;51.330;4.946;2023-12-20T15:24:43;5.32;;;2.40;;
31686;SDS011;18285;51.330;4.946;2023-12-20T15:48:56;4.43;;;2.25;;
31686;SDS011;18285;51.330;4.946;2023-12-20T16:13:07;7.50;;;2.90;;
31686;SDS011;18285;51.330;4.946;2023-12-20T16:37:19;9.30;;;2.65;;
31686;SDS011;18285;51.330;4.946;2023-12-20T17:01:29;7.33;;;2.40;;
31686;SDS011;18285;51.330;4.946;2023-12-20T17:25:40;7.47;;;2.00;;
31686;SDS011;18285;51.330;4.946;2023-12-20T17:49:51;4.40;;;1.60;;
31686;SDS011;18285;51.330;4.946;2023-12-20T18:14:01;4.07;;;1.87;;
31686;SDS011;18285;51.330;4.946;2023-12-20T18:38:12;9.63;;;3.00;;
31686;SDS011;18285;51.330;4.946;2023-12-20T19:02:23;7.63;;;2.83;;
31686;SDS011;18285;51.330;4.946;2023-12-20T19:26:34;6.05;;;2.40;;
31686;SDS011;18285;51.330;4.946;2023-12-20T20:15:01;5.13;;;2.15;;
31686;SDS011;18285;51.330;4.946;2023-12-20T20:39:11;10.90;;;2.30;;
31686;SDS011;18285;51.330;4.946;2023-12-20T21:03:23;4.88;;;1.85;;
31686;SDS011;18285;51.330;4.946;2023-12-20T21:27:34;7.40;;;2.67;;
31686;SDS011;18285;51.330;4.946;2023-12-20T22:15:59;6.80;;;2.63;;
31686;SDS011;18285;51.330;4.946;2023-12-20T22:40:10;3.15;;;1.92;;
31686;SDS011;18285;51.330;4.946;2023-12-20T23:04:22;4.45;;;2.20;;
31686;SDS011;18285;51.330;4.946;2023-12-20T23:28:32;4.60;;;2.30;;
31686;SDS011;18285;51.330;4.946;2023-12-20T23:52:43;3.45;;;2.10;;
